createdAt,value
2023-01-28T00:01:55.390Z,13.40
2023-01-28T00:04:22.650Z,13.95
2023-01-28T00:06:49.262Z,13.88
2023-01-28T00:09:16.672Z,14.10
2023-01-28T00:11:43.387Z,13.57
2023-01-28T00:14:12.128Z,15.18
2023-01-28T00:16:38.948Z,13.55
2023-01-28T00:19:06.199Z,15.15
2023-01-28T00:21:32.793Z,14.43
2023-01-28T00:23:59.914Z,14.63
2023-01-28T00:26:27.576Z,14.68
2023-01-28T00:28:54.292Z,14.25
2023-01-28T00:31:27.546Z,14.00
2023-01-28T00:33:55.732Z,13.77
2023-01-28T00:36:25.708Z,13.48
2023-01-28T00:38:54.728Z,14.32
2023-01-28T00:41:24.540Z,14.20
2023-01-28T00:43:52.249Z,14.40
2023-01-28T00:46:21.521Z,14.70
2023-01-28T00:48:48.580Z,15.43
2023-01-28T00:51:18.068Z,16.58
2023-01-28T00:53:44.871Z,16.50
2023-01-28T00:56:15.152Z,16.60
2023-01-28T00:58:42.613Z,17.45
2023-01-28T01:01:19.065Z,17.85
2023-01-28T01:03:46.594Z,16.70
2023-01-28T01:06:16.801Z,16.70
2023-01-28T01:08:49.889Z,16.45
2023-01-28T01:11:18.457Z,16.40
2023-01-28T01:13:49.408Z,15.80
2023-01-28T01:16:17.933Z,15.75
2023-01-28T01:18:44.581Z,17.58
2023-01-28T01:21:15.350Z,17.23
2023-01-28T01:23:42.067Z,16.33
2023-01-28T01:26:18.458Z,17.75
2023-01-28T01:28:45.427Z,17.65
2023-01-28T01:31:16.137Z,17.90
2023-01-28T01:33:43.967Z,16.17
2023-01-28T01:36:12.883Z,16.60
2023-01-28T01:38:40.880Z,17.05
2023-01-28T01:41:09.711Z,16.67
2023-01-28T01:43:56.079Z,17.17
2023-01-28T01:46:43.736Z,16.30
2023-01-28T01:49:23.444Z,13.15
2023-01-28T01:52:03.081Z,10.63
2023-01-28T01:54:32.394Z,9.95
2023-01-28T01:57:00.666Z,10.60
2023-01-28T01:59:34.146Z,10.70
2023-01-28T02:02:06.224Z,13.68
2023-01-28T02:04:38.814Z,13.27
2023-01-28T02:07:09.664Z,13.30
2023-01-28T02:09:41.807Z,11.68
2023-01-28T02:12:15.998Z,13.07
2023-01-28T02:14:48.148Z,13.48
2023-01-28T02:17:15.832Z,14.65
2023-01-28T02:20:01.391Z,14.50
2023-01-28T02:22:50.132Z,12.63
2023-01-28T02:25:51.525Z,12.95
2023-01-28T02:28:48.918Z,12.07
2023-01-28T02:31:28.375Z,12.63
2023-01-28T02:33:55.094Z,12.32
2023-01-28T02:36:38.783Z,11.95
2023-01-28T02:39:24.681Z,11.02
2023-01-28T02:42:18.038Z,10.88
2023-01-28T02:44:45.125Z,11.68
2023-01-28T02:47:31.418Z,10.60
2023-01-28T02:50:02.445Z,11.45
2023-01-28T02:53:05.030Z,11.43
2023-01-28T02:55:35.114Z,9.05
2023-01-28T02:58:41.725Z,11.63
2023-01-28T03:01:27.918Z,11.77
2023-01-28T03:04:17.347Z,12.55
2023-01-28T03:06:49.670Z,12.10
2023-01-28T03:09:24.935Z,12.35
2023-01-28T03:12:21.548Z,12.35
2023-01-28T03:15:29.393Z,12.35
2023-01-28T03:18:27.919Z,13.10
2023-01-28T03:21:32.531Z,13.32
2023-01-28T03:24:28.216Z,12.80
2023-01-28T03:27:30.655Z,12.77
2023-01-28T03:30:33.542Z,13.80
2023-01-28T03:33:24.779Z,10.10
2023-01-28T03:36:11.296Z,13.13
2023-01-28T03:38:48.641Z,14.02
2023-01-28T03:41:22.975Z,14.48
2023-01-28T03:43:50.824Z,13.88
2023-01-28T03:46:18.704Z,14.75
2023-01-28T03:48:45.906Z,13.65
2023-01-28T03:51:16.145Z,14.10
2023-01-28T03:53:42.746Z,13.15
2023-01-28T03:56:18.393Z,13.77
2023-01-28T03:58:56.579Z,14.45
2023-01-28T04:01:24.622Z,13.13
2023-01-28T04:03:51.554Z,14.05
2023-01-28T04:09:16.478Z,12.85
2023-01-28T04:12:16.131Z,13.88
2023-01-28T04:14:49.061Z,13.90
2023-01-28T04:17:24.521Z,13.20
2023-01-28T04:19:51.897Z,13.18
2023-01-28T04:22:19.585Z,12.60
2023-01-28T04:24:46.865Z,13.05
2023-01-28T04:27:14.889Z,14.10
2023-01-28T04:29:42.136Z,12.90
2023-01-28T04:32:27.865Z,13.07
2023-01-28T04:35:05.986Z,13.20
2023-01-28T04:38:05.112Z,12.80
2023-01-28T04:40:42.099Z,13.45
2023-01-28T04:43:23.416Z,13.85
2023-01-28T04:46:19.640Z,14.18
2023-01-28T04:49:02.199Z,15.03
2023-01-28T04:51:51.911Z,13.98
2023-01-28T04:54:33.912Z,14.15
2023-01-28T04:57:02.878Z,14.63
2023-01-28T04:59:31.227Z,15.32
2023-01-28T05:01:58.010Z,14.88
2023-01-28T05:04:25.351Z,14.88
2023-01-28T05:06:52.915Z,16.00
2023-01-28T05:09:25.052Z,16.90
2023-01-28T05:11:52.054Z,16.25
2023-01-28T05:14:19.448Z,16.38
2023-01-28T05:16:52.134Z,17.60
2023-01-28T05:19:20.316Z,17.88
2023-01-28T05:21:47.548Z,17.58
2023-01-28T05:24:32.503Z,16.95
2023-01-28T05:26:59.333Z,17.55
2023-01-28T05:29:27.040Z,16.25
2023-01-28T05:31:53.673Z,18.08
2023-01-28T05:34:21.322Z,18.35
2023-01-28T05:36:48.156Z,19.48
2023-01-28T05:39:28.735Z,18.38
2023-01-28T05:41:55.418Z,18.55
2023-01-28T05:44:23.049Z,19.45
2023-01-28T05:47:08.073Z,19.48
2023-01-28T05:49:49.246Z,20.13
2023-01-28T05:52:36.449Z,19.00
2023-01-28T05:55:05.367Z,18.80
2023-01-28T05:57:32.356Z,19.02
2023-01-28T05:59:59.872Z,20.17
2023-01-28T06:02:26.809Z,17.65
2023-01-28T06:04:57.320Z,19.17
2023-01-28T06:07:24.148Z,19.40
2023-01-28T06:09:51.644Z,18.70
2023-01-28T06:12:20.819Z,19.35
2023-01-28T06:15:10.012Z,18.20
2023-01-28T06:18:00.372Z,20.33
2023-01-28T06:20:30.195Z,19.30
2023-01-28T06:22:58.617Z,19.33
2023-01-28T06:25:25.279Z,20.10
2023-01-28T06:27:53.128Z,20.83
2023-01-28T06:30:20.392Z,19.77
2023-01-28T06:32:46.994Z,19.05
2023-01-28T06:35:14.347Z,19.58
2023-01-28T06:37:41.697Z,19.85
2023-01-28T06:40:09.686Z,20.92
2023-01-28T06:42:36.290Z,22.30
2023-01-28T06:45:03.745Z,22.38
2023-01-28T06:47:30.325Z,22.17
2023-01-28T06:49:57.587Z,21.20
2023-01-28T06:52:24.310Z,23.33
2023-01-28T06:54:51.586Z,25.80
2023-01-28T06:57:18.185Z,25.73
2023-01-28T06:59:45.582Z,25.65
2023-01-28T07:02:12.315Z,25.70
2023-01-28T07:04:39.590Z,26.98
2023-01-28T07:07:06.697Z,26.48
2023-01-28T07:09:34.030Z,27.40
2023-01-28T07:12:00.727Z,27.25
2023-01-28T07:14:28.038Z,24.73
2023-01-28T07:16:54.719Z,25.27
2023-01-28T07:19:22.051Z,25.27
2023-01-28T07:21:49.026Z,25.45
2023-01-28T07:24:16.038Z,26.52
2023-01-28T07:26:43.767Z,26.02
2023-01-28T07:29:11.089Z,25.35
2023-01-28T07:31:37.834Z,26.13
2023-01-28T07:34:05.242Z,27.13
2023-01-28T07:36:31.955Z,25.70
2023-01-28T07:38:58.965Z,26.75
2023-01-28T07:41:25.683Z,26.77
2023-01-28T07:43:52.967Z,26.92
2023-01-28T07:46:19.591Z,26.52
2023-01-28T07:48:46.928Z,24.48
2023-01-28T07:51:13.672Z,24.58
2023-01-28T07:53:41.174Z,25.63
2023-01-28T07:56:07.960Z,26.25
2023-01-28T07:58:35.327Z,25.65
2023-01-28T08:01:02.894Z,25.20
2023-01-28T08:03:30.237Z,24.23
2023-01-28T08:05:58.174Z,27.70
2023-01-28T08:08:29.523Z,27.00
2023-01-28T08:10:56.200Z,25.17
2023-01-28T08:13:23.463Z,25.75
2023-01-28T08:15:54.619Z,26.58
2023-01-28T08:18:21.909Z,26.00
2023-01-28T08:20:48.725Z,27.45
2023-01-28T08:23:17.752Z,27.85
2023-01-28T08:25:45.358Z,26.65
2023-01-28T08:28:13.555Z,26.88
2023-01-28T08:30:40.381Z,28.35
2023-01-28T08:33:09.746Z,27.95
2023-01-28T08:35:36.458Z,26.90
2023-01-28T08:38:05.238Z,27.15
2023-01-28T08:40:32.633Z,27.52
2023-01-28T08:42:59.844Z,27.40
2023-01-28T08:45:28.432Z,28.95
2023-01-28T08:48:01.003Z,28.38
2023-01-28T08:50:32.416Z,29.35
2023-01-28T08:53:02.542Z,28.67
2023-01-28T08:55:30.360Z,27.63
2023-01-28T08:57:58.717Z,28.33
2023-01-28T09:00:25.538Z,28.58
2023-01-28T09:02:53.669Z,25.63
2023-01-28T09:05:21.027Z,28.48
2023-01-28T09:07:49.407Z,29.30
2023-01-28T09:10:16.754Z,26.85
2023-01-28T09:12:44.802Z,27.58
2023-01-28T09:15:12.483Z,26.85
2023-01-28T09:17:39.546Z,28.42
2023-01-28T09:20:08.152Z,29.08
2023-01-28T09:22:35.728Z,28.10
2023-01-28T09:25:02.323Z,26.65
2023-01-28T09:27:29.600Z,30.02
2023-01-28T09:29:56.237Z,28.02
2023-01-28T09:32:24.978Z,26.88
2023-01-28T09:34:51.741Z,27.83
2023-01-28T09:37:19.225Z,25.80
2023-01-28T09:39:46.062Z,26.48
2023-01-28T09:42:18.922Z,26.45
2023-01-28T09:44:54.105Z,26.50
2023-01-28T09:47:27.022Z,26.75
2023-01-28T09:49:57.007Z,25.48
2023-01-28T09:52:26.810Z,27.25
2023-01-28T09:55:19.587Z,30.33
2023-01-28T09:57:56.754Z,27.00
2023-01-28T10:00:32.112Z,26.23
2023-01-28T10:03:08.258Z,26.00
2023-01-28T10:05:59.348Z,27.52
2023-01-28T10:08:55.114Z,27.23
2023-01-28T10:11:25.191Z,26.73
2023-01-28T10:14:13.364Z,23.85
2023-01-28T10:16:52.084Z,25.30
2023-01-28T10:19:24.057Z,24.50
2023-01-28T10:22:00.731Z,23.98
2023-01-28T10:24:38.299Z,22.42
2023-01-28T10:27:32.492Z,24.85
2023-01-28T10:30:08.820Z,22.42
2023-01-28T10:32:44.292Z,25.05
2023-01-28T10:35:12.066Z,23.73
2023-01-28T10:37:40.826Z,25.63
2023-01-28T10:40:13.182Z,23.48
2023-01-28T10:42:40.708Z,22.13
2023-01-28T10:45:27.985Z,21.27
2023-01-28T10:48:03.092Z,22.15
2023-01-28T10:50:31.345Z,24.17
2023-01-28T10:53:04.330Z,22.52
2023-01-28T10:55:49.209Z,21.60
2023-01-28T10:58:29.384Z,21.95
2023-01-28T11:01:05.649Z,20.88
2023-01-28T11:03:35.496Z,23.08
2023-01-28T11:06:03.274Z,25.90
2023-01-28T11:08:44.292Z,24.23
2023-01-28T11:11:15.492Z,21.85
2023-01-28T11:13:54.293Z,26.63
2023-01-28T11:16:21.861Z,21.73
2023-01-28T11:18:54.212Z,21.70
2023-01-28T11:21:28.535Z,24.60
2023-01-28T11:24:06.867Z,22.38
2023-01-28T11:26:39.624Z,21.80
2023-01-28T11:29:07.332Z,21.73
2023-01-28T11:31:44.000Z,21.85
2023-01-28T11:34:18.169Z,21.35
2023-01-28T11:36:52.852Z,21.40
2023-01-28T11:39:28.935Z,22.40
2023-01-28T11:42:19.702Z,21.65
2023-01-28T11:44:48.475Z,21.15
2023-01-28T11:47:30.707Z,23.63
2023-01-28T11:50:04.109Z,23.73
2023-01-28T11:56:01.936Z,25.20
2023-01-28T11:58:35.533Z,24.50
2023-01-28T12:01:10.377Z,24.95
2023-01-28T12:04:11.516Z,23.20
2023-01-28T12:07:15.380Z,23.73
2023-01-28T12:10:03.161Z,24.38
2023-01-28T12:12:49.200Z,24.48
2023-01-28T12:15:48.497Z,25.20
2023-01-28T12:18:30.796Z,27.95
2023-01-28T12:20:58.050Z,30.45
2023-01-28T12:23:30.137Z,27.77
2023-01-28T12:26:08.559Z,28.63
2023-01-28T12:29:01.120Z,33.72
2023-01-28T12:31:51.643Z,35.72
2023-01-28T12:34:57.827Z,34.03
2023-01-28T12:37:35.210Z,32.47
2023-01-28T12:40:39.827Z,33.78
2023-01-28T12:43:39.626Z,34.28
2023-01-28T12:46:18.114Z,34.70
2023-01-28T12:48:59.868Z,36.08
2023-01-28T12:51:52.550Z,34.95
2023-01-28T12:54:44.669Z,37.30
2023-01-28T12:57:22.715Z,36.80
2023-01-28T12:59:58.794Z,35.55
2023-01-28T13:02:32.731Z,36.83
2023-01-28T13:05:09.733Z,36.88
2023-01-28T13:07:57.351Z,37.53
2023-01-28T13:10:34.271Z,35.10
2023-01-28T13:13:01.227Z,42.55
2023-01-28T13:15:29.459Z,45.67
2023-01-28T13:18:01.583Z,35.92
2023-01-28T13:20:52.898Z,38.38
2023-01-28T13:23:47.525Z,40.45
2023-01-28T13:26:23.686Z,36.38
2023-01-28T13:28:52.552Z,37.25
2023-01-28T13:31:22.550Z,35.00
2023-01-28T13:33:55.413Z,36.20
2023-01-28T13:36:30.716Z,35.92
2023-01-28T13:39:17.978Z,34.67
2023-01-28T13:42:15.200Z,35.33
2023-01-28T13:44:42.198Z,36.60
2023-01-28T13:47:08.738Z,37.83
2023-01-28T13:49:47.106Z,35.83
2023-01-28T13:52:34.104Z,35.67
2023-01-28T13:55:12.842Z,51.05
2023-01-28T13:58:04.343Z,35.67
2023-01-28T14:00:41.414Z,42.42
2023-01-28T14:03:20.110Z,38.80
2023-01-28T14:06:30.627Z,37.25
2023-01-28T14:09:20.563Z,36.38
2023-01-28T14:12:04.552Z,36.78
2023-01-28T14:14:50.144Z,37.42
2023-01-28T14:17:28.749Z,37.05
2023-01-28T14:19:58.588Z,38.42
2023-01-28T14:22:26.598Z,37.70
2023-01-28T14:24:55.045Z,38.13
2023-01-28T14:27:29.081Z,37.17
2023-01-28T14:30:18.899Z,37.75
2023-01-28T14:32:51.017Z,40.25
2023-01-28T14:35:30.338Z,38.25
2023-01-28T14:37:59.123Z,37.72
2023-01-28T14:40:28.515Z,37.35
2023-01-28T14:42:56.283Z,37.10
2023-01-28T14:45:55.137Z,38.80
2023-01-28T14:48:25.367Z,39.70
2023-01-28T14:51:23.624Z,39.50
2023-01-28T14:53:53.034Z,38.00
2023-01-28T14:56:40.870Z,41.00
2023-01-28T14:59:18.605Z,38.53
2023-01-28T15:01:47.216Z,40.33
2023-01-28T15:04:33.465Z,39.53
2023-01-28T15:07:23.447Z,40.72
2023-01-28T15:10:06.161Z,41.90
2023-01-28T15:12:39.524Z,41.05
2023-01-28T15:15:11.434Z,41.92
2023-01-28T15:17:38.390Z,43.30
2023-01-28T15:20:08.797Z,43.70
2023-01-28T15:22:35.563Z,42.97
2023-01-28T15:25:03.737Z,38.45
2023-01-28T15:27:31.059Z,40.58
2023-01-28T15:29:59.571Z,42.40
2023-01-28T15:32:29.445Z,41.90
2023-01-28T15:34:59.645Z,40.95
2023-01-28T15:37:26.358Z,39.90
2023-01-28T15:40:08.687Z,40.80
2023-01-28T15:42:35.526Z,41.72
2023-01-28T15:45:03.382Z,40.95
2023-01-28T15:47:33.688Z,40.88
2023-01-28T15:50:05.470Z,39.92
2023-01-28T15:52:38.074Z,41.80
2023-01-28T15:55:07.276Z,42.95
2023-01-28T15:57:35.335Z,42.03
2023-01-28T16:00:15.051Z,41.17
2023-01-28T16:02:50.032Z,41.10
2023-01-28T16:05:42.279Z,41.45
2023-01-28T16:08:12.980Z,39.63
2023-01-28T16:10:40.464Z,40.75
2023-01-28T16:13:10.051Z,38.75
2023-01-28T16:15:39.422Z,39.17
2023-01-28T16:18:06.704Z,40.67
2023-01-28T16:20:34.039Z,41.00
2023-01-28T16:23:02.821Z,39.63
2023-01-28T16:25:37.081Z,39.40
2023-01-28T16:28:19.059Z,39.13
2023-01-28T16:30:46.382Z,39.30
2023-01-28T16:33:21.896Z,40.38
2023-01-28T16:36:05.482Z,39.47
2023-01-28T16:38:34.591Z,40.63
2023-01-28T16:41:02.348Z,41.70
2023-01-28T16:43:28.967Z,41.55
2023-01-28T16:45:56.524Z,44.30
2023-01-28T16:48:23.276Z,47.75
2023-01-28T16:50:50.576Z,47.63
2023-01-28T16:53:28.761Z,45.38
2023-01-28T16:55:56.619Z,44.25
2023-01-28T16:58:26.241Z,44.13
2023-01-28T17:00:54.557Z,44.33
2023-01-28T17:03:21.954Z,43.58
2023-01-28T17:05:48.970Z,43.88
2023-01-28T17:08:16.780Z,44.38
2023-01-28T17:10:44.213Z,43.08
2023-01-28T17:13:10.802Z,42.45
2023-01-28T17:15:38.187Z,43.03
2023-01-28T17:18:05.039Z,42.22
2023-01-28T17:20:37.585Z,41.85
2023-01-28T17:23:06.336Z,43.30
2023-01-28T17:25:39.129Z,42.05
2023-01-28T17:28:06.674Z,49.15
2023-01-28T17:30:34.241Z,41.97
2023-01-28T17:33:00.914Z,43.15
2023-01-28T17:35:28.234Z,44.22
2023-01-28T17:37:55.485Z,43.78
2023-01-28T17:40:23.555Z,42.20
2023-01-28T17:42:50.166Z,44.33
2023-01-28T17:45:18.237Z,45.42
2023-01-28T17:47:45.059Z,49.25
2023-01-28T17:50:12.439Z,48.05
2023-01-28T17:52:40.880Z,48.70
2023-01-28T17:55:10.575Z,56.80
2023-01-28T17:57:37.396Z,52.70
2023-01-28T18:00:06.661Z,56.78
2023-01-28T18:02:38.899Z,54.75
2023-01-28T18:05:06.704Z,53.85
2023-01-28T18:07:33.537Z,55.95
2023-01-28T18:10:00.860Z,52.75
2023-01-28T18:12:27.556Z,53.13
2023-01-28T18:14:54.860Z,51.10
2023-01-28T18:17:26.664Z,51.90
2023-01-28T18:19:54.021Z,50.70
2023-01-28T18:22:20.719Z,52.83
2023-01-28T18:24:48.172Z,51.03
2023-01-28T18:27:14.801Z,52.42
2023-01-28T18:29:42.190Z,54.92
2023-01-28T18:32:09.508Z,56.05
2023-01-28T18:34:37.038Z,58.20
2023-01-28T18:37:03.709Z,52.05
2023-01-28T18:39:31.343Z,48.63
2023-01-28T18:41:59.002Z,45.35
2023-01-28T18:44:27.671Z,43.78
2023-01-28T18:46:54.433Z,43.92
2023-01-28T18:49:21.874Z,44.45
2023-01-28T18:51:48.596Z,43.72
2023-01-28T18:54:16.327Z,43.67
2023-01-28T18:56:43.703Z,40.42
2023-01-28T18:59:13.388Z,44.40
2023-01-28T19:01:44.565Z,44.78
2023-01-28T19:04:12.322Z,45.97
2023-01-28T19:06:39.131Z,45.70
2023-01-28T19:09:08.657Z,46.03
2023-01-28T19:11:35.711Z,47.55
2023-01-28T19:14:03.115Z,51.92
2023-01-28T19:16:30.439Z,52.33
2023-01-28T19:19:00.216Z,51.10
2023-01-28T19:21:29.229Z,46.78
2023-01-28T19:24:00.439Z,47.33
2023-01-28T19:26:27.999Z,43.78
2023-01-28T19:28:55.409Z,44.38
2023-01-28T19:31:23.466Z,43.28
2023-01-28T19:33:55.530Z,44.60
2023-01-28T19:36:23.271Z,47.13
2023-01-28T19:38:50.581Z,44.03
2023-01-28T19:41:17.375Z,45.97
2023-01-28T19:43:45.246Z,45.10
2023-01-28T19:46:15.900Z,46.35
2023-01-28T19:48:44.419Z,45.20
2023-01-28T19:51:13.687Z,46.45
2023-01-28T19:53:42.728Z,45.95
2023-01-28T19:56:12.542Z,44.28
2023-01-28T19:58:42.561Z,47.33
2023-01-28T20:01:13.423Z,46.75
2023-01-28T20:03:41.274Z,46.80
2023-01-28T20:06:12.442Z,48.85
2023-01-28T20:08:39.887Z,49.65
2023-01-28T20:11:09.580Z,49.22
2023-01-28T20:13:38.280Z,52.22
2023-01-28T20:16:07.623Z,51.20
2023-01-28T20:18:35.508Z,50.67
2023-01-28T20:21:04.788Z,49.45
2023-01-28T20:23:33.085Z,49.97
2023-01-28T20:26:00.949Z,47.83
2023-01-28T20:28:28.300Z,46.78
2023-01-28T20:30:56.831Z,48.35
2023-01-28T20:33:23.770Z,45.80
2023-01-28T20:35:51.169Z,47.20
2023-01-28T20:38:18.066Z,48.97
2023-01-28T20:40:44.807Z,48.55
2023-01-28T20:43:11.743Z,50.33
2023-01-28T20:45:39.014Z,50.63
2023-01-28T20:48:05.874Z,49.53
2023-01-28T20:50:34.375Z,50.60
2023-01-28T20:53:01.090Z,51.15
2023-01-28T20:55:28.932Z,50.78
2023-01-28T20:57:56.120Z,49.17
2023-01-28T21:00:24.154Z,51.72
2023-01-28T21:02:50.915Z,55.17
2023-01-28T21:05:18.007Z,54.15
2023-01-28T21:07:44.759Z,55.58
2023-01-28T21:10:11.838Z,54.50
2023-01-28T21:12:38.432Z,53.60
2023-01-28T21:15:05.959Z,52.70
2023-01-28T21:17:32.646Z,53.65
2023-01-28T21:20:00.056Z,50.63
2023-01-28T21:22:26.927Z,52.65
2023-01-28T21:24:54.219Z,51.42
2023-01-28T21:27:20.837Z,51.38
2023-01-28T21:29:48.336Z,49.20
2023-01-28T21:32:16.051Z,48.00
2023-01-28T21:34:43.221Z,48.83
2023-01-28T21:37:09.904Z,50.78
2023-01-28T21:39:36.939Z,50.40
2023-01-28T21:42:03.658Z,51.75
2023-01-28T21:44:30.999Z,53.33
2023-01-28T21:46:57.663Z,54.78
2023-01-28T21:49:24.634Z,52.03
2023-01-28T21:51:51.250Z,52.25
2023-01-28T21:54:19.881Z,51.22
2023-01-28T21:56:48.406Z,52.17
2023-01-28T21:59:28.527Z,53.08
2023-01-28T22:01:59.917Z,50.95
2023-01-28T22:04:35.978Z,53.13
2023-01-28T22:07:05.602Z,52.75
2023-01-28T22:09:33.751Z,51.45
2023-01-28T22:12:04.942Z,50.45
2023-01-28T22:14:32.232Z,51.15
2023-01-28T22:16:58.888Z,52.85
2023-01-28T22:19:26.689Z,50.97
2023-01-28T22:21:53.651Z,52.22
2023-01-28T22:24:22.787Z,49.33
2023-01-28T22:26:50.004Z,49.92
2023-01-28T22:29:21.002Z,48.70
2023-01-28T22:31:50.203Z,48.33
2023-01-28T22:34:18.095Z,49.78
2023-01-28T22:36:45.996Z,50.08
2023-01-28T22:39:16.222Z,51.58
2023-01-28T22:41:43.914Z,53.13
2023-01-28T22:44:11.489Z,53.03
2023-01-28T22:46:38.351Z,50.05
2023-01-28T22:49:05.645Z,49.95
2023-01-28T22:51:34.524Z,49.03
2023-01-28T22:54:02.724Z,49.53
2023-01-28T22:56:30.151Z,48.25
2023-01-28T22:58:59.872Z,49.05
2023-01-28T23:01:27.287Z,49.35
2023-01-28T23:03:55.952Z,48.42
2023-01-28T23:06:24.845Z,49.15
2023-01-28T23:08:51.859Z,48.92
2023-01-28T23:11:36.822Z,47.25
2023-01-28T23:14:23.223Z,51.03
2023-01-28T23:17:08.746Z,51.05
2023-01-28T23:19:54.568Z,48.60
2023-01-28T23:22:47.521Z,48.20
2023-01-28T23:25:15.622Z,47.67
2023-01-28T23:27:42.695Z,48.03
2023-01-28T23:30:11.210Z,50.28
2023-01-28T23:32:40.783Z,48.13
2023-01-28T23:35:09.687Z,47.25
2023-01-28T23:37:36.639Z,48.90
2023-01-28T23:40:06.477Z,48.35
2023-01-28T23:42:33.519Z,49.83
2023-01-28T23:45:00.141Z,50.67
2023-01-28T23:47:27.249Z,51.00
2023-01-28T23:49:54.559Z,51.90
2023-01-28T23:52:21.311Z,51.55
2023-01-28T23:54:48.496Z,52.08
2023-01-28T23:57:15.373Z,48.70
2023-01-28T23:59:43.240Z,50.50
